sensor_id;sensor_type;location;lat;lon;timestamp;pressure;altitude;pressure_sealevel;temperature;humidity
52319;BME280;38258;51.148;14.068;2023-03-25T00:00:00;97275.41;;;7.51;100.00
52319;BME280;38258;51.148;14.068;2023-03-25T00:02:40;97292.38;;;7.63;100.00
52319;BME280;38258;51.148;14.068;2023-03-25T00:05:10;97279.34;;;7.63;100.00
52319;BME280;38258;51.148;14.068;2023-03-25T00:07:40;97283.44;;;7.70;100.00
52319;BME280;38258;51.148;14.068;2023-03-25T00:10:08;97261.31;;;7.57;100.00
52319;BME280;38258;51.148;14.068;2023-03-25T00:12:36;97261.59;;;7.49;100.00
52319;BME280;38258;51.148;14.068;2023-03-25T00:15:03;97265.31;;;7.42;100.00
52319;BME280;38258;51.148;14.068;2023-03-25T00:17:30;97270.00;;;7.57;100.00
52319;BME280;38258;51.148;14.068;2023-03-25T00:19:57;97265.22;;;7.45;100.00
52319;BME280;38258;51.148;14.068;2023-03-25T00:22:25;97264.47;;;7.41;100.00
52319;BME280;38258;51.148;14.068;2023-03-25T00:24:53;97258.19;;;7.47;100.00
52319;BME280;38258;51.148;14.068;2023-03-25T00:27:19;97256.50;;;7.46;100.00
52319;BME280;38258;51.148;14.068;2023-03-25T00:29:46;97257.44;;;7.43;100.00
52319;BME280;38258;51.148;14.068;2023-03-25T00:32:15;97257.81;;;7.58;100.00
52319;BME280;38258;51.148;14.068;2023-03-25T00:34:45;97251.56;;;7.63;100.00
52319;BME280;38258;51.148;14.068;2023-03-25T00:37:12;97249.97;;;7.59;100.00
52319;BME280;38258;51.148;14.068;2023-03-25T00:39:42;97243.34;;;7.50;100.00
52319;BME280;38258;51.148;14.068;2023-03-25T00:42:10;97243.91;;;7.59;100.00
52319;BME280;38258;51.148;14.068;2023-03-25T00:44:40;97236.09;;;7.59;100.00
52319;BME280;38258;51.148;14.068;2023-03-25T00:47:07;97223.59;;;7.45;100.00
52319;BME280;38258;51.148;14.068;2023-03-25T00:49:36;97220.94;;;7.46;100.00
52319;BME280;38258;51.148;14.068;2023-03-25T00:52:03;97230.59;;;7.43;100.00
52319;BME280;38258;51.148;14.068;2023-03-25T00:54:30;97227.50;;;7.31;100.00
52319;BME280;38258;51.148;14.068;2023-03-25T00:56:58;97229.50;;;7.23;100.00
52319;BME280;38258;51.148;14.068;2023-03-25T00:59:26;97233.91;;;7.21;100.00
52319;BME280;38258;51.148;14.068;2023-03-25T01:01:53;97235.94;;;7.13;100.00
52319;BME280;38258;51.148;14.068;2023-03-25T01:04:20;97233.25;;;7.14;100.00
52319;BME280;38258;51.148;14.068;2023-03-25T01:06:47;97230.66;;;7.14;100.00
52319;BME280;38258;51.148;14.068;2023-03-25T01:09:17;97230.25;;;7.27;100.00
52319;BME280;38258;51.148;14.068;2023-03-25T01:11:45;97232.97;;;7.24;100.00
52319;BME280;38258;51.148;14.068;2023-03-25T01:14:14;97219.16;;;7.21;100.00
52319;BME280;38258;51.148;14.068;2023-03-25T01:16:43;97229.31;;;7.29;100.00
52319;BME280;38258;51.148;14.068;2023-03-25T01:19:10;97227.28;;;7.38;100.00
52319;BME280;38258;51.148;14.068;2023-03-25T01:21:38;97235.94;;;7.38;100.00
52319;BME280;38258;51.148;14.068;2023-03-25T01:24:09;97236.88;;;7.35;100.00
52319;BME280;38258;51.148;14.068;2023-03-25T01:26:38;97227.28;;;7.38;100.00
52319;BME280;38258;51.148;14.068;2023-03-25T01:29:08;97231.34;;;7.46;100.00
52319;BME280;38258;51.148;14.068;2023-03-25T01:31:35;97224.25;;;7.25;100.00
52319;BME280;38258;51.148;14.068;2023-03-25T01:34:04;97220.75;;;7.26;100.00
52319;BME280;38258;51.148;14.068;2023-03-25T01:36:30;97224.38;;;7.21;100.00
52319;BME280;38258;51.148;14.068;2023-03-25T01:38:58;97224.50;;;7.17;100.00
52319;BME280;38258;51.148;14.068;2023-03-25T01:41:26;97214.38;;;7.09;100.00
52319;BME280;38258;51.148;14.068;2023-03-25T01:46:38;97212.81;;;7.03;100.00
52319;BME280;38258;51.148;14.068;2023-03-25T01:49:13;97213.84;;;6.99;100.00
52319;BME280;38258;51.148;14.068;2023-03-25T01:51:44;97208.28;;;6.83;100.00
52319;BME280;38258;51.148;14.068;2023-03-25T01:54:11;97198.66;;;6.85;100.00
52319;BME280;38258;51.148;14.068;2023-03-25T01:56:44;97201.91;;;6.92;100.00
52319;BME280;38258;51.148;14.068;2023-03-25T01:59:14;97196.63;;;6.95;100.00
52319;BME280;38258;51.148;14.068;2023-03-25T02:01:44;97191.63;;;6.89;100.00
52319;BME280;38258;51.148;14.068;2023-03-25T02:04:14;97187.72;;;6.75;100.00
52319;BME280;38258;51.148;14.068;2023-03-25T02:06:49;97188.75;;;6.98;100.00
52319;BME280;38258;51.148;14.068;2023-03-25T02:09:19;97176.72;;;6.94;100.00
52319;BME280;38258;51.148;14.068;2023-03-25T02:11:47;97171.97;;;7.07;100.00
52319;BME280;38258;51.148;14.068;2023-03-25T02:14:18;97181.72;;;7.00;100.00
52319;BME280;38258;51.148;14.068;2023-03-25T02:16:55;97175.81;;;6.95;100.00
52319;BME280;38258;51.148;14.068;2023-03-25T02:19:45;97173.19;;;6.97;100.00
52319;BME280;38258;51.148;14.068;2023-03-25T02:22:54;97166.78;;;7.07;100.00
52319;BME280;38258;51.148;14.068;2023-03-25T02:25:51;97159.91;;;7.04;100.00
52319;BME280;38258;51.148;14.068;2023-03-25T02:28:28;97167.25;;;7.44;100.00
52319;BME280;38258;51.148;14.068;2023-03-25T02:31:25;97163.25;;;7.33;100.00
52319;BME280;38258;51.148;14.068;2023-03-25T02:34:19;97157.22;;;7.33;100.00
52319;BME280;38258;51.148;14.068;2023-03-25T02:37:07;97162.31;;;7.36;100.00
52319;BME280;38258;51.148;14.068;2023-03-25T02:39:45;97154.44;;;7.38;100.00
52319;BME280;38258;51.148;14.068;2023-03-25T02:42:17;97137.78;;;7.18;100.00
52319;BME280;38258;51.148;14.068;2023-03-25T02:44:54;97150.78;;;7.18;100.00
52319;BME280;38258;51.148;14.068;2023-03-25T02:47:25;97159.00;;;7.31;100.00
52319;BME280;38258;51.148;14.068;2023-03-25T02:49:57;97146.59;;;7.39;100.00
52319;BME280;38258;51.148;14.068;2023-03-25T02:52:28;97114.81;;;7.05;100.00
52319;BME280;38258;51.148;14.068;2023-03-25T02:55:00;97156.06;;;7.42;100.00
52319;BME280;38258;51.148;14.068;2023-03-25T02:57:32;97141.50;;;7.36;100.00
52319;BME280;38258;51.148;14.068;2023-03-25T03:00:01;97150.06;;;7.40;100.00
52319;BME280;38258;51.148;14.068;2023-03-25T03:02:32;97146.44;;;7.44;100.00
52319;BME280;38258;51.148;14.068;2023-03-25T03:05:00;97128.38;;;7.39;100.00
52319;BME280;38258;51.148;14.068;2023-03-25T03:07:29;97124.88;;;7.40;100.00
52319;BME280;38258;51.148;14.068;2023-03-25T03:10:04;97139.53;;;7.67;100.00
52319;BME280;38258;51.148;14.068;2023-03-25T03:12:44;97149.44;;;7.57;100.00
52319;BME280;38258;51.148;14.068;2023-03-25T03:15:26;97148.88;;;7.72;100.00
52319;BME280;38258;51.148;14.068;2023-03-25T03:18:15;97155.34;;;7.62;100.00
52319;BME280;38258;51.148;14.068;2023-03-25T03:20:53;97148.88;;;7.48;100.00
52319;BME280;38258;51.148;14.068;2023-03-25T03:23:24;97156.28;;;7.59;100.00
52319;BME280;38258;51.148;14.068;2023-03-25T03:26:02;97157.19;;;7.58;100.00
52319;BME280;38258;51.148;14.068;2023-03-25T03:28:33;97158.22;;;7.54;100.00
52319;BME280;38258;51.148;14.068;2023-03-25T03:31:04;97146.66;;;7.61;100.00
52319;BME280;38258;51.148;14.068;2023-03-25T03:33:35;97149.66;;;7.50;100.00
52319;BME280;38258;51.148;14.068;2023-03-25T03:36:07;97149.72;;;7.49;100.00
52319;BME280;38258;51.148;14.068;2023-03-25T03:38:40;97153.94;;;7.53;100.00
52319;BME280;38258;51.148;14.068;2023-03-25T03:41:16;97139.84;;;7.33;100.00
52319;BME280;38258;51.148;14.068;2023-03-25T03:43:46;97148.78;;;7.26;100.00
52319;BME280;38258;51.148;14.068;2023-03-25T03:46:16;97150.41;;;7.29;100.00
52319;BME280;38258;51.148;14.068;2023-03-25T03:48:47;97142.63;;;7.29;100.00
52319;BME280;38258;51.148;14.068;2023-03-25T03:51:17;97147.50;;;7.38;100.00
52319;BME280;38258;51.148;14.068;2023-03-25T03:53:51;97151.41;;;7.26;100.00
52319;BME280;38258;51.148;14.068;2023-03-25T03:56:25;97157.13;;;7.11;100.00
52319;BME280;38258;51.148;14.068;2023-03-25T03:58:56;97143.00;;;7.18;100.00
52319;BME280;38258;51.148;14.068;2023-03-25T04:01:27;97140.25;;;7.22;100.00
52319;BME280;38258;51.148;14.068;2023-03-25T04:04:02;97145.97;;;7.07;100.00
52319;BME280;38258;51.148;14.068;2023-03-25T04:06:33;97152.97;;;7.05;100.00
52319;BME280;38258;51.148;14.068;2023-03-25T04:09:08;97144.06;;;7.12;100.00
52319;BME280;38258;51.148;14.068;2023-03-25T04:11:41;97155.09;;;7.19;100.00
52319;BME280;38258;51.148;14.068;2023-03-25T04:14:10;97146.47;;;7.18;100.00
52319;BME280;38258;51.148;14.068;2023-03-25T04:16:38;97170.28;;;7.31;100.00
52319;BME280;38258;51.148;14.068;2023-03-25T04:19:05;97166.53;;;7.39;100.00
52319;BME280;38258;51.148;14.068;2023-03-25T04:21:35;97174.19;;;7.43;100.00
52319;BME280;38258;51.148;14.068;2023-03-25T04:24:01;97172.50;;;7.42;100.00
52319;BME280;38258;51.148;14.068;2023-03-25T04:26:29;97161.94;;;7.47;100.00
52319;BME280;38258;51.148;14.068;2023-03-25T04:28:59;97168.72;;;7.51;100.00
52319;BME280;38258;51.148;14.068;2023-03-25T04:31:28;97169.47;;;7.55;100.00
52319;BME280;38258;51.148;14.068;2023-03-25T04:33:56;97167.41;;;7.39;100.00
52319;BME280;38258;51.148;14.068;2023-03-25T04:36:23;97159.44;;;7.44;100.00
52319;BME280;38258;51.148;14.068;2023-03-25T04:38:53;97160.97;;;7.49;100.00
52319;BME280;38258;51.148;14.068;2023-03-25T04:41:20;97157.25;;;7.57;100.00
52319;BME280;38258;51.148;14.068;2023-03-25T04:43:47;97130.56;;;7.52;100.00
52319;BME280;38258;51.148;14.068;2023-03-25T04:46:16;97159.25;;;7.74;100.00
52319;BME280;38258;51.148;14.068;2023-03-25T04:48:43;97163.25;;;7.83;100.00
52319;BME280;38258;51.148;14.068;2023-03-25T04:51:12;97160.53;;;7.86;100.00
52319;BME280;38258;51.148;14.068;2023-03-25T04:53:40;97171.72;;;7.88;100.00
52319;BME280;38258;51.148;14.068;2023-03-25T04:56:11;97168.22;;;7.89;100.00
52319;BME280;38258;51.148;14.068;2023-03-25T04:58:40;97143.50;;;7.77;100.00
52319;BME280;38258;51.148;14.068;2023-03-25T05:01:07;97157.31;;;7.79;100.00
52319;BME280;38258;51.148;14.068;2023-03-25T05:03:43;97168.19;;;7.90;100.00
52319;BME280;38258;51.148;14.068;2023-03-25T05:06:10;97161.50;;;7.83;100.00
52319;BME280;38258;51.148;14.068;2023-03-25T05:08:37;97164.91;;;7.85;100.00
52319;BME280;38258;51.148;14.068;2023-03-25T05:11:04;97175.81;;;7.95;100.00
52319;BME280;38258;51.148;14.068;2023-03-25T05:13:31;97169.88;;;7.91;100.00
52319;BME280;38258;51.148;14.068;2023-03-25T05:15:58;97173.25;;;7.93;100.00
52319;BME280;38258;51.148;14.068;2023-03-25T05:18:25;97158.91;;;7.83;100.00
52319;BME280;38258;51.148;14.068;2023-03-25T05:20:53;97147.00;;;7.76;100.00
52319;BME280;38258;51.148;14.068;2023-03-25T05:23:21;97166.31;;;7.94;100.00
52319;BME280;38258;51.148;14.068;2023-03-25T05:25:49;97177.63;;;7.93;100.00
52319;BME280;38258;51.148;14.068;2023-03-25T05:28:18;97166.59;;;7.86;100.00
52319;BME280;38258;51.148;14.068;2023-03-25T05:30:46;97175.16;;;7.90;100.00
52319;BME280;38258;51.148;14.068;2023-03-25T05:33:15;97180.28;;;7.91;100.00
52319;BME280;38258;51.148;14.068;2023-03-25T05:35:42;97171.44;;;7.96;100.00
52319;BME280;38258;51.148;14.068;2023-03-25T05:38:11;97148.09;;;7.70;100.00
52319;BME280;38258;51.148;14.068;2023-03-25T05:40:41;97175.25;;;7.87;100.00
52319;BME280;38258;51.148;14.068;2023-03-25T05:43:08;97171.81;;;7.86;100.00
52319;BME280;38258;51.148;14.068;2023-03-25T05:45:35;97165.84;;;7.83;100.00
52319;BME280;38258;51.148;14.068;2023-03-25T05:48:02;97177.56;;;7.95;100.00
52319;BME280;38258;51.148;14.068;2023-03-25T05:50:29;97165.53;;;7.92;100.00
52319;BME280;38258;51.148;14.068;2023-03-25T05:52:56;97169.53;;;8.01;100.00
52319;BME280;38258;51.148;14.068;2023-03-25T05:55:26;97177.97;;;8.07;100.00
52319;BME280;38258;51.148;14.068;2023-03-25T05:57:53;97176.16;;;8.10;100.00
52319;BME280;38258;51.148;14.068;2023-03-25T06:00:21;97178.22;;;8.24;100.00
52319;BME280;38258;51.148;14.068;2023-03-25T06:02:49;97185.06;;;8.26;100.00
52319;BME280;38258;51.148;14.068;2023-03-25T06:05:16;97187.50;;;8.31;100.00
52319;BME280;38258;51.148;14.068;2023-03-25T06:07:48;97188.16;;;8.36;100.00
52319;BME280;38258;51.148;14.068;2023-03-25T06:10:16;97190.31;;;8.48;100.00
52319;BME280;38258;51.148;14.068;2023-03-25T06:12:45;97192.13;;;8.46;100.00
52319;BME280;38258;51.148;14.068;2023-03-25T06:15:14;97184.56;;;8.40;100.00
52319;BME280;38258;51.148;14.068;2023-03-25T06:17:42;97199.50;;;8.35;100.00
52319;BME280;38258;51.148;14.068;2023-03-25T06:20:12;97197.16;;;8.29;100.00
52319;BME280;38258;51.148;14.068;2023-03-25T06:22:42;97166.03;;;8.02;100.00
52319;BME280;38258;51.148;14.068;2023-03-25T06:25:10;97198.84;;;8.30;100.00
52319;BME280;38258;51.148;14.068;2023-03-25T06:27:37;97209.44;;;8.25;100.00
52319;BME280;38258;51.148;14.068;2023-03-25T06:30:09;97208.75;;;8.20;100.00
52319;BME280;38258;51.148;14.068;2023-03-25T06:32:36;97210.97;;;8.07;100.00
52319;BME280;38258;51.148;14.068;2023-03-25T06:35:04;97213.72;;;8.02;100.00
52319;BME280;38258;51.148;14.068;2023-03-25T06:37:32;97213.09;;;7.96;100.00
52319;BME280;38258;51.148;14.068;2023-03-25T06:40:02;97212.41;;;7.92;100.00
52319;BME280;38258;51.148;14.068;2023-03-25T06:42:33;97218.31;;;7.96;100.00
52319;BME280;38258;51.148;14.068;2023-03-25T06:45:21;97219.00;;;8.01;100.00
52319;BME280;38258;51.148;14.068;2023-03-25T06:48:20;97218.09;;;8.02;100.00
52319;BME280;38258;51.148;14.068;2023-03-25T06:50:47;97211.38;;;7.96;100.00
52319;BME280;38258;51.148;14.068;2023-03-25T06:53:14;97218.31;;;7.96;100.00
52319;BME280;38258;51.148;14.068;2023-03-25T06:55:40;97204.00;;;7.84;100.00
52319;BME280;38258;51.148;14.068;2023-03-25T06:58:09;97238.94;;;8.02;100.00
52319;BME280;38258;51.148;14.068;2023-03-25T07:00:37;97217.03;;;8.07;100.00
52319;BME280;38258;51.148;14.068;2023-03-25T07:03:04;97201.41;;;8.07;100.00
52319;BME280;38258;51.148;14.068;2023-03-25T07:05:31;97233.63;;;8.29;100.00
52319;BME280;38258;51.148;14.068;2023-03-25T07:07:57;97216.69;;;8.39;100.00
52319;BME280;38258;51.148;14.068;2023-03-25T07:10:24;97206.22;;;8.41;100.00
52319;BME280;38258;51.148;14.068;2023-03-25T07:12:51;97228.28;;;8.56;100.00
52319;BME280;38258;51.148;14.068;2023-03-25T07:15:18;97228.91;;;8.62;100.00
52319;BME280;38258;51.148;14.068;2023-03-25T07:17:46;97230.00;;;8.57;100.00
52319;BME280;38258;51.148;14.068;2023-03-25T07:20:14;97227.00;;;8.66;100.00
52319;BME280;38258;51.148;14.068;2023-03-25T07:22:41;97222.94;;;8.81;100.00
52319;BME280;38258;51.148;14.068;2023-03-25T07:25:08;97223.78;;;8.82;100.00
52319;BME280;38258;51.148;14.068;2023-03-25T07:27:35;97237.38;;;8.90;100.00
52319;BME280;38258;51.148;14.068;2023-03-25T07:30:07;97231.59;;;8.82;100.00
52319;BME280;38258;51.148;14.068;2023-03-25T07:32:34;97231.81;;;8.99;100.00
52319;BME280;38258;51.148;14.068;2023-03-25T07:35:03;97231.16;;;9.15;100.00
52319;BME280;38258;51.148;14.068;2023-03-25T07:37:30;97228.44;;;9.39;100.00
52319;BME280;38258;51.148;14.068;2023-03-25T07:39:56;97223.16;;;9.19;100.00
52319;BME280;38258;51.148;14.068;2023-03-25T07:42:23;97227.81;;;9.54;100.00
52319;BME280;38258;51.148;14.068;2023-03-25T07:45:11;97235.56;;;9.56;100.00
52319;BME280;38258;51.148;14.068;2023-03-25T07:47:40;97251.34;;;9.53;100.00
52319;BME280;38258;51.148;14.068;2023-03-25T07:50:08;97137.44;;;9.31;100.00
52319;BME280;38258;51.148;14.068;2023-03-25T07:52:35;97144.09;;;9.17;100.00
52319;BME280;38258;51.148;14.068;2023-03-25T07:55:01;97199.78;;;9.79;100.00
52319;BME280;38258;51.148;14.068;2023-03-25T07:57:28;97227.72;;;9.96;100.00
52319;BME280;38258;51.148;14.068;2023-03-25T07:59:55;97097.72;;;9.24;100.00
52319;BME280;38258;51.148;14.068;2023-03-25T08:02:21;97205.84;;;9.98;100.00
52319;BME280;38258;51.148;14.068;2023-03-25T08:04:48;97228.09;;;10.07;100.00
52319;BME280;38258;51.148;14.068;2023-03-25T08:07:16;97218.00;;;9.99;100.00
52319;BME280;38258;51.148;14.068;2023-03-25T08:09:43;97238.38;;;10.31;99.46
52319;BME280;38258;51.148;14.068;2023-03-25T08:12:10;97250.84;;;10.05;100.00
52319;BME280;38258;51.148;14.068;2023-03-25T08:14:36;97242.78;;;9.90;100.00
52319;BME280;38258;51.148;14.068;2023-03-25T08:17:03;97243.75;;;9.88;100.00
52319;BME280;38258;51.148;14.068;2023-03-25T08:19:30;97200.78;;;9.34;100.00
52319;BME280;38258;51.148;14.068;2023-03-25T08:21:57;97243.31;;;9.37;100.00
52319;BME280;38258;51.148;14.068;2023-03-25T08:24:25;97250.63;;;9.49;100.00
52319;BME280;38258;51.148;14.068;2023-03-25T08:26:54;97251.31;;;9.54;100.00
52319;BME280;38258;51.148;14.068;2023-03-25T08:29:21;97257.03;;;9.42;100.00
52319;BME280;38258;51.148;14.068;2023-03-25T08:31:48;97258.06;;;9.79;100.00
52319;BME280;38258;51.148;14.068;2023-03-25T08:34:17;97243.44;;;9.13;100.00
52319;BME280;38258;51.148;14.068;2023-03-25T08:36:44;97262.47;;;9.15;100.00
52319;BME280;38258;51.148;14.068;2023-03-25T08:39:11;97268.75;;;9.31;100.00
52319;BME280;38258;51.148;14.068;2023-03-25T08:41:43;97273.66;;;9.60;100.00
52319;BME280;38258;51.148;14.068;2023-03-25T08:44:10;97256.63;;;9.30;100.00
52319;BME280;38258;51.148;14.068;2023-03-25T08:46:36;97230.00;;;8.57;100.00
52319;BME280;38258;51.148;14.068;2023-03-25T08:49:03;97292.38;;;8.61;100.00
52319;BME280;38258;51.148;14.068;2023-03-25T08:51:30;97293.53;;;8.53;100.00
52319;BME280;38258;51.148;14.068;2023-03-25T08:53:57;97286.19;;;8.40;100.00
52319;BME280;38258;51.148;14.068;2023-03-25T08:56:25;97289.72;;;8.14;100.00
52319;BME280;38258;51.148;14.068;2023-03-25T08:58:53;97302.81;;;8.12;100.00
52319;BME280;38258;51.148;14.068;2023-03-25T09:01:19;97304.03;;;7.51;100.00
52319;BME280;38258;51.148;14.068;2023-03-25T09:03:48;97315.31;;;7.23;100.00
52319;BME280;38258;51.148;14.068;2023-03-25T09:06:15;97318.72;;;6.98;100.00
52319;BME280;38258;51.148;14.068;2023-03-25T09:08:41;97317.94;;;6.96;100.00
52319;BME280;38258;51.148;14.068;2023-03-25T09:11:08;97323.19;;;6.93;100.00
52319;BME280;38258;51.148;14.068;2023-03-25T09:13:35;97321.59;;;6.89;100.00
52319;BME280;38258;51.148;14.068;2023-03-25T09:16:04;97313.50;;;6.70;100.00
52319;BME280;38258;51.148;14.068;2023-03-25T09:18:30;97298.56;;;6.48;100.00
52319;BME280;38258;51.148;14.068;2023-03-25T09:20:57;97324.00;;;6.67;100.00
52319;BME280;38258;51.148;14.068;2023-03-25T09:23:24;97318.16;;;6.58;100.00
52319;BME280;38258;51.148;14.068;2023-03-25T09:25:51;97341.50;;;6.60;100.00
52319;BME280;38258;51.148;14.068;2023-03-25T09:28:17;97342.22;;;6.65;100.00
52319;BME280;38258;51.148;14.068;2023-03-25T09:30:44;97340.81;;;6.55;100.00
52319;BME280;38258;51.148;14.068;2023-03-25T09:33:12;97335.41;;;6.61;100.00
52319;BME280;38258;51.148;14.068;2023-03-25T09:35:38;97351.44;;;6.75;100.00
52319;BME280;38258;51.148;14.068;2023-03-25T09:38:05;97344.44;;;6.79;100.00
52319;BME280;38258;51.148;14.068;2023-03-25T09:40:33;97341.94;;;6.76;100.00
52319;BME280;38258;51.148;14.068;2023-03-25T09:43:05;97346.25;;;6.75;100.00
52319;BME280;38258;51.148;14.068;2023-03-25T09:45:36;97307.84;;;6.57;100.00
52319;BME280;38258;51.148;14.068;2023-03-25T09:48:17;97348.50;;;6.88;100.00
52319;BME280;38258;51.148;14.068;2023-03-25T09:50:48;97345.69;;;6.65;100.00
52319;BME280;38258;51.148;14.068;2023-03-25T09:53:24;97349.13;;;6.66;100.00
52319;BME280;38258;51.148;14.068;2023-03-25T09:55:54;97319.41;;;6.45;100.00
52319;BME280;38258;51.148;14.068;2023-03-25T09:58:26;97351.69;;;6.68;100.00
52319;BME280;38258;51.148;14.068;2023-03-25T10:00:58;97344.53;;;6.46;100.00
52319;BME280;38258;51.148;14.068;2023-03-25T10:03:31;97337.22;;;6.59;100.00
52319;BME280;38258;51.148;14.068;2023-03-25T10:06:15;97338.13;;;6.58;100.00
52319;BME280;38258;51.148;14.068;2023-03-25T10:09:00;97335.75;;;6.78;100.00
52319;BME280;38258;51.148;14.068;2023-03-25T10:11:35;97330.75;;;6.72;100.00
52319;BME280;38258;51.148;14.068;2023-03-25T10:14:08;97325.22;;;6.83;100.00
52319;BME280;38258;51.148;14.068;2023-03-25T10:16:44;97276.13;;;6.74;100.00
52319;BME280;38258;51.148;14.068;2023-03-25T10:19:24;97286.91;;;6.90;100.00
52319;BME280;38258;51.148;14.068;2023-03-25T10:21:57;97286.53;;;7.02;100.00
52319;BME280;38258;51.148;14.068;2023-03-25T10:24:30;97309.56;;;7.13;100.00
52319;BME280;38258;51.148;14.068;2023-03-25T10:26:59;97311.28;;;7.14;100.00
52319;BME280;38258;51.148;14.068;2023-03-25T10:29:31;97304.22;;;7.18;100.00
52319;BME280;38258;51.148;14.068;2023-03-25T10:32:02;97306.69;;;7.22;100.00
52319;BME280;38258;51.148;14.068;2023-03-25T10:34:36;97303.06;;;7.79;100.00
52319;BME280;38258;51.148;14.068;2023-03-25T10:37:09;97261.69;;;8.44;100.00
52319;BME280;38258;51.148;14.068;2023-03-25T10:39:40;97292.38;;;9.06;100.00
52319;BME280;38258;51.148;14.068;2023-03-25T10:42:21;97255.44;;;8.72;100.00
52319;BME280;38258;51.148;14.068;2023-03-25T10:44:51;97276.22;;;8.74;100.00
52319;BME280;38258;51.148;14.068;2023-03-25T10:47:21;97299.13;;;8.89;100.00
52319;BME280;38258;51.148;14.068;2023-03-25T10:49:51;97284.06;;;8.96;100.00
52319;BME280;38258;51.148;14.068;2023-03-25T10:52:17;97265.59;;;8.80;100.00
52319;BME280;38258;51.148;14.068;2023-03-25T10:54:48;97274.44;;;9.83;100.00
52319;BME280;38258;51.148;14.068;2023-03-25T10:57:18;97236.00;;;9.66;100.00
52319;BME280;38258;51.148;14.068;2023-03-25T10:59:57;97249.94;;;9.23;100.00
52319;BME280;38258;51.148;14.068;2023-03-25T11:02:27;97258.06;;;9.38;100.00
52319;BME280;38258;51.148;14.068;2023-03-25T11:04:57;97259.09;;;9.33;100.00
52319;BME280;38258;51.148;14.068;2023-03-25T11:07:32;97250.34;;;9.34;100.00
52319;BME280;38258;51.148;14.068;2023-03-25T11:10:15;97243.38;;;9.56;100.00
52319;BME280;38258;51.148;14.068;2023-03-25T11:12:44;97238.81;;;9.40;100.00
52319;BME280;38258;51.148;14.068;2023-03-25T11:15:14;97248.94;;;9.27;100.00
52319;BME280;38258;51.148;14.068;2023-03-25T11:17:42;97270.53;;;8.40;100.00
52319;BME280;38258;51.148;14.068;2023-03-25T11:20:19;97282.09;;;7.58;100.00
52319;BME280;38258;51.148;14.068;2023-03-25T11:22:49;97278.13;;;7.21;100.00
52319;BME280;38258;51.148;14.068;2023-03-25T11:25:18;97271.34;;;6.88;100.00
52319;BME280;38258;51.148;14.068;2023-03-25T11:27:48;97280.25;;;6.81;100.00
52319;BME280;38258;51.148;14.068;2023-03-25T11:30:19;97274.00;;;6.87;100.00
52319;BME280;38258;51.148;14.068;2023-03-25T11:32:55;97263.38;;;6.95;100.00
52319;BME280;38258;51.148;14.068;2023-03-25T11:35:27;97263.66;;;6.85;100.00
52319;BME280;38258;51.148;14.068;2023-03-25T11:37:55;97268.22;;;7.05;100.00
52319;BME280;38258;51.148;14.068;2023-03-25T11:40:26;97255.66;;;7.71;100.00
52319;BME280;38258;51.148;14.068;2023-03-25T11:42:55;97244.28;;;7.73;100.00
52319;BME280;38258;51.148;14.068;2023-03-25T11:45:23;97226.38;;;7.39;100.00
52319;BME280;38258;51.148;14.068;2023-03-25T11:47:52;97244.81;;;7.58;100.00
52319;BME280;38258;51.148;14.068;2023-03-25T11:50:26;97232.06;;;7.50;100.00
52319;BME280;38258;51.148;14.068;2023-03-25T11:52:55;97227.50;;;8.54;100.00
52319;BME280;38258;51.148;14.068;2023-03-25T11:55:25;97233.41;;;9.02;100.00
52319;BME280;38258;51.148;14.068;2023-03-25T11:57:53;97239.50;;;8.10;100.00
52319;BME280;38258;51.148;14.068;2023-03-25T12:00:37;97228.84;;;7.92;100.00
52319;BME280;38258;51.148;14.068;2023-03-25T12:03:15;97230.22;;;7.54;100.00
52319;BME280;38258;51.148;14.068;2023-03-25T12:05:58;97230.94;;;8.54;100.00
52319;BME280;38258;51.148;14.068;2023-03-25T12:08:28;97213.41;;;9.23;100.00
52319;BME280;38258;51.148;14.068;2023-03-25T12:10:59;97218.00;;;9.99;100.00
52319;BME280;38258;51.148;14.068;2023-03-25T12:13:34;97219.78;;;9.99;100.00
52319;BME280;38258;51.148;14.068;2023-03-25T12:16:17;97214.03;;;9.51;100.00
52319;BME280;38258;51.148;14.068;2023-03-25T12:19:07;97207.09;;;9.29;100.00
52319;BME280;38258;51.148;14.068;2023-03-25T12:21:47;97198.03;;;9.98;100.00
52319;BME280;38258;51.148;14.068;2023-03-25T12:24:26;97191.16;;;9.96;100.00
52319;BME280;38258;51.148;14.068;2023-03-25T12:27:05;97190.72;;;10.82;100.00
52319;BME280;38258;51.148;14.068;2023-03-25T12:29:39;97184.19;;;10.35;100.00
52319;BME280;38258;51.148;14.068;2023-03-25T12:32:14;97194.38;;;10.60;100.00
52319;BME280;38258;51.148;14.068;2023-03-25T12:34:50;97169.53;;;10.69;100.00
52319;BME280;38258;51.148;14.068;2023-03-25T12:37:30;97149.47;;;10.69;100.00
52319;BME280;38258;51.148;14.068;2023-03-25T12:40:15;97173.59;;;10.94;100.00
52319;BME280;38258;51.148;14.068;2023-03-25T12:42:47;97179.19;;;10.86;100.00
52319;BME280;38258;51.148;14.068;2023-03-25T12:45:25;97186.09;;;11.40;100.00
52319;BME280;38258;51.148;14.068;2023-03-25T12:47:58;97123.22;;;11.41;100.00
52319;BME280;38258;51.148;14.068;2023-03-25T12:50:41;97177.72;;;10.98;100.00
52319;BME280;38258;51.148;14.068;2023-03-25T12:53:25;97171.84;;;11.45;100.00
52319;BME280;38258;51.148;14.068;2023-03-25T12:56:06;97147.09;;;11.69;100.00
52319;BME280;38258;51.148;14.068;2023-03-25T12:58:52;97152.91;;;10.33;100.00
52319;BME280;38258;51.148;14.068;2023-03-25T13:01:32;97156.66;;;10.08;100.00
52319;BME280;38258;51.148;14.068;2023-03-25T13:04:11;97145.75;;;10.37;100.00
52319;BME280;38258;51.148;14.068;2023-03-25T13:06:44;97141.53;;;10.15;100.00
52319;BME280;38258;51.148;14.068;2023-03-25T13:09:19;97145.84;;;9.97;100.00
52319;BME280;38258;51.148;14.068;2023-03-25T13:11:50;97166.19;;;10.28;100.00